Time;durP1;ratioP1;P1;durP2;ratioP2;P2;SDS_P1;SDS_P2;PMS_P1;PMS_P2;Temp;Humidity;BMP_temperature;BMP_pressure;BME280_temperature;BME280_humidity;BME280_pressure;Samples;Min_cycle;Max_cycle;Signal;HPM_P1;HPM_P2
2022/06/25 10:33:06;;;;;;;;;;;;;;;32.66;36.52;99433.72;4969335;28;1488;-68
2022/06/25 10:35:34;;;;;;;;;;;;;;;32.39;36.43;99432.44;4975574;28;890;-68
2022/06/25 10:38:04;;;;;;;;;;;;;;;32.77;35.95;99437.59;4975527;28;815;-71
2022/06/25 10:40:32;;;;;;;;;;;;;;;32.95;36.77;99439.38;4975602;28;1902;-69
2022/06/25 10:43:01;;;;;;;;;;;;;;;33.02;36.51;99435.75;4975782;28;932;-71
2022/06/25 10:45:31;;;;;;;;;;;;;;;32.75;36.39;99436.06;4975447;28;847;-72
2022/06/25 10:47:58;;;;;;;;;;;;;;;32.65;36.81;99437.94;4975284;28;900;-70
2022/06/25 10:50:25;;;;;;;;;;;;;;;32.90;36.31;99437.44;4975307;28;898;-70
2022/06/25 10:53:15;;;;;;;;;;;;;;;32.96;36.19;99444.50;4975309;28;855;-69
2022/06/25 10:55:48;;;;;;;;;;;;;;;33.16;35.91;99439.25;4974696;28;1114;-70
2022/06/25 10:58:16;;;;;;;;;;;;;;;32.96;35.04;99444.50;4975146;28;871;-70
2022/06/25 11:00:50;;;;;;;;;;;;;;;32.91;35.28;99445.44;4975059;28;1886;-71
2022/06/25 11:03:37;;;;;;;;;;;;;;;33.16;34.37;99433.53;4975005;28;970;-70
2022/06/25 11:06:24;;;;;;;;;;;;;;;33.50;34.58;99421.72;4974932;28;1190;-71
2022/06/25 11:08:52;;;;;;;;;;;;;;;33.76;34.83;99416.94;4974924;28;1296;-73
2022/06/25 11:11:26;;;;;;;;;;;;;;;33.60;33.89;99424.78;4974753;28;843;-73
2022/06/25 11:13:53;;;;;;;;;;;;;;;33.06;34.31;99430.41;4974882;28;799;-70
2022/06/25 11:16:20;;;;;;;;;;;;;;;33.39;34.65;99422.06;4975019;28;886;-71
2022/06/25 11:18:47;;;;;;;;;;;;;;;33.59;33.65;99423.22;4974771;28;816;-70
2022/06/25 11:21:26;;;;;;;;;;;;;;;33.35;33.71;99430.28;4974683;28;1946;-70
2022/06/25 11:23:53;;;;;;;;;;;;;;;32.90;32.66;99429.63;4974579;28;862;-71
2022/06/25 11:29:05;;;;;;;;;;;;;;;33.48;34.61;99424.38;4974623;28;680;-69
2022/06/25 11:31:33;;;;;;;;;;;;;;;33.96;34.14;99415.19;4974808;28;1014;-71
2022/06/25 11:34:02;;;;;;;;;;;;;;;33.93;33.17;99417.09;4974296;28;1332;-72
2022/06/25 11:36:32;;;;;;;;;;;;;;;34.23;32.76;99424.13;4974513;28;835;-71
2022/06/25 11:38:58;;;;;;;;;;;;;;;34.98;32.20;99417.88;4974701;28;878;-69
2022/06/25 11:41:27;;;;;;;;;;;;;;;34.82;30.68;99413.56;4973361;28;1978;-71
2022/06/25 11:43:54;;;;;;;;;;;;;;;34.86;30.89;99417.53;4974353;28;898;-71
2022/06/25 11:46:21;;;;;;;;;;;;;;;35.23;30.57;99411.41;4974327;28;843;-70
2022/06/25 11:48:48;;;;;;;;;;;;;;;35.14;30.46;99413.59;4974188;28;791;-71
2022/06/25 11:51:25;;;;;;;;;;;;;;;35.29;29.49;99414.81;4974324;28;839;-69
2022/06/25 11:53:53;;;;;;;;;;;;;;;35.30;29.67;99401.97;4974164;28;858;-71
2022/06/25 11:56:19;;;;;;;;;;;;;;;35.92;29.87;99405.06;4974099;28;804;-71
2022/06/25 11:58:46;;;;;;;;;;;;;;;36.32;29.14;99404.84;4974094;28;894;-69
2022/06/25 12:01:13;;;;;;;;;;;;;;;36.70;28.33;99409.38;4973754;28;1938;-69
2022/06/25 12:03:45;;;;;;;;;;;;;;;36.81;28.24;99405.19;4956641;28;1279;-70
2022/06/25 12:06:11;;;;;;;;;;;;;;;36.42;28.67;99404.91;4973942;28;850;-71
2022/06/25 12:08:38;;;;;;;;;;;;;;;36.25;28.99;99404.91;4973907;28;855;-69
2022/06/25 12:11:05;;;;;;;;;;;;;;;35.82;29.24;99401.34;4973720;28;867;-70
2022/06/25 12:13:32;;;;;;;;;;;;;;;36.57;28.25;99395.31;4973756;28;870;-71
2022/06/25 12:16:03;;;;;;;;;;;;;;;37.28;27.35;99391.63;4973986;28;870;-71
2022/06/25 12:18:40;;;;;;;;;;;;;;;37.58;27.22;99401.16;4973648;28;882;-70
2022/06/25 12:21:08;;;;;;;;;;;;;;;37.29;27.23;99398.16;4973806;28;1950;-69
2022/06/25 12:23:53;;;;;;;;;;;;;;;36.49;28.42;99403.28;4973826;28;922;-69
2022/06/25 12:26:27;;;;;;;;;;;;;;;37.08;27.71;99387.88;4973471;28;803;-71
2022/06/25 12:29:04;;;;;;;;;;;;;;;37.53;27.25;99394.25;4973396;28;894;-72
2022/06/25 12:31:30;;;;;;;;;;;;;;;37.33;27.02;99395.59;4973675;28;1964;-75
2022/06/25 12:33:59;;;;;;;;;;;;;;;37.08;26.99;99395.75;4973091;28;1278;-71
2022/06/25 12:36:27;;;;;;;;;;;;;;;37.07;26.89;99385.63;4973434;28;803;-72
2022/06/25 12:38:53;;;;;;;;;;;;;;;37.56;26.40;99395.97;4973354;28;843;-71
2022/06/25 12:41:19;;;;;;;;;;;;;;;36.83;26.61;99398.81;4973326;28;878;-71
2022/06/25 12:43:47;;;;;;;;;;;;;;;36.15;27.15;99401.97;4973314;28;822;-70
2022/06/25 12:46:17;;;;;;;;;;;;;;;36.88;26.85;99398.56;4973177;28;905;-71
2022/06/25 12:48:44;;;;;;;;;;;;;;;36.45;27.46;99400.84;4973270;28;819;-69
2022/06/25 12:51:12;;;;;;;;;;;;;;;36.46;27.91;99393.72;4972892;28;1914;-69
2022/06/25 12:53:39;;;;;;;;;;;;;;;38.30;26.45;99395.78;4973147;28;871;-69
2022/06/25 12:56:08;;;;;;;;;;;;;;;37.84;26.08;99390.13;4973164;28;898;-67
2022/06/25 12:58:35;;;;;;;;;;;;;;;37.57;26.57;99385.22;4973373;28;803;-72
2022/06/25 13:01:17;;;;;;;;;;;;;;;37.03;26.88;99386.03;4973421;28;799;-71
2022/06/25 13:03:45;;;;;;;;;;;;;;;37.53;26.30;99381.97;4973318;28;896;-70
2022/06/25 13:06:12;;;;;;;;;;;;;;;37.48;26.39;99386.69;4973279;28;803;-70
2022/06/25 13:08:40;;;;;;;;;;;;;;;35.82;28.40;99396.34;4972896;28;812;-70
2022/06/25 13:11:17;;;;;;;;;;;;;;;34.76;29.16;99397.34;4972803;28;1894;-69
2022/06/25 13:13:43;;;;;;;;;;;;;;;33.51;30.88;99388.84;4971592;28;946;-69
2022/06/25 13:16:11;;;;;;;;;;;;;;;33.21;31.75;99386.75;4973095;28;859;-69
2022/06/25 13:18:39;;;;;;;;;;;;;;;32.72;32.69;99388.56;4973059;28;882;-70
2022/06/25 13:21:05;;;;;;;;;;;;;;;31.57;34.14;99390.03;4987702;28;1187;-69
2022/06/25 13:23:33;;;;;;;;;;;;;;;30.86;35.16;99390.69;4972825;28;843;-70
2022/06/25 13:25:59;;;;;;;;;;;;;;;30.67;35.96;99390.09;4972732;28;966;-71
2022/06/25 13:28:26;;;;;;;;;;;;;;;30.41;36.42;99388.09;4972642;28;811;-71
2022/06/25 13:30:53;;;;;;;;;;;;;;;30.00;36.92;99384.47;4972775;28;1934;-69
2022/06/25 13:33:20;;;;;;;;;;;;;;;29.88;37.33;99383.16;4972537;28;1280;-68
2022/06/25 13:35:46;;;;;;;;;;;;;;;29.89;38.23;99390.38;4972520;28;819;-70
2022/06/25 13:38:13;;;;;;;;;;;;;;;29.85;38.52;99387.09;4972627;28;874;-69
2022/06/25 13:40:40;;;;;;;;;;;;;;;29.89;38.79;99385.47;4987503;28;1232;-69
2022/06/25 13:43:07;;;;;;;;;;;;;;;30.44;38.08;99382.03;4972587;28;882;-69
2022/06/25 13:45:34;;;;;;;;;;;;;;;30.73;38.26;99385.78;4972610;28;886;-70
2022/06/25 13:48:00;;;;;;;;;;;;;;;30.90;38.31;99387.50;4972613;28;831;-70
2022/06/25 13:50:28;;;;;;;;;;;;;;;31.32;37.90;99394.00;4972589;28;1914;-70
2022/06/25 13:52:55;;;;;;;;;;;;;;;32.40;36.50;99391.09;4972490;28;851;-70
2022/06/25 13:55:21;;;;;;;;;;;;;;;33.93;34.10;99381.94;4972481;28;831;-70
2022/06/25 13:57:48;;;;;;;;;;;;;;;33.17;34.05;99377.78;4972445;28;954;-71
2022/06/25 14:00:15;;;;;;;;;;;;;;;32.26;35.55;99385.53;4972418;28;906;-70
2022/06/25 14:02:42;;;;;;;;;;;;;;;31.58;36.63;99391.53;4972325;28;807;-71
2022/06/25 14:05:08;;;;;;;;;;;;;;;31.13;37.91;99388.50;4975680;28;815;-71
2022/06/25 14:07:35;;;;;;;;;;;;;;;30.90;38.83;99381.81;4976040;28;829;-71
2022/06/25 14:10:03;;;;;;;;;;;;;;;30.60;39.78;99377.28;4976014;28;1954;-71
2022/06/25 14:12:30;;;;;;;;;;;;;;;30.37;40.25;99382.72;4976078;28;910;-71
2022/06/25 14:14:57;;;;;;;;;;;;;;;30.15;41.13;99372.53;4976080;28;803;-71
2022/06/25 14:17:23;;;;;;;;;;;;;;;30.11;42.04;99383.50;4990844;28;1284;-70
2022/06/25 14:19:52;;;;;;;;;;;;;;;29.91;42.92;99374.31;4975909;28;898;-71
2022/06/25 14:22:18;;;;;;;;;;;;;;;29.87;43.76;99376.72;4975923;28;890;-69
2022/06/25 14:27:30;;;;;;;;;;;;;;;30.89;42.96;99383.88;4976109;28;714;-71
2022/06/25 14:29:56;;;;;;;;;;;;;;;30.89;43.49;99381.03;4975896;28;859;-71
2022/06/25 14:32:23;;;;;;;;;;;;;;;30.73;44.04;99377.22;4976031;28;1878;-71
2022/06/25 14:34:49;;;;;;;;;;;;;;;30.46;45.60;99379.38;4975778;28;878;-69
2022/06/25 14:42:46;;;;;;;;;;;;;;;30.12;46.07;99368.66;4975413;28;665;-71
2022/06/25 14:45:13;;;;;;;;;;;;;;;29.64;46.90;99369.88;4975425;28;807;-68
2022/06/25 14:47:39;;;;;;;;;;;;;;;29.43;47.62;99372.59;4975363;28;1070;-71
2022/06/25 14:50:07;;;;;;;;;;;;;;;29.38;47.48;99370.59;4975234;28;1915;-70
2022/06/25 14:52:33;;;;;;;;;;;;;;;29.54;47.75;99360.22;4975265;28;850;-71
2022/06/25 14:55:01;;;;;;;;;;;;;;;29.45;47.74;99353.66;4990237;28;1229;-71
2022/06/25 14:57:27;;;;;;;;;;;;;;;29.31;47.88;99355.69;4975015;28;862;-71
2022/06/25 14:59:54;;;;;;;;;;;;;;;29.01;48.63;99350.22;4975199;28;866;-70
2022/06/25 15:02:21;;;;;;;;;;;;;;;28.43;49.55;99357.28;4975115;28;823;-70
2022/06/25 15:04:47;;;;;;;;;;;;;;;28.08;51.20;99366.81;4975098;28;871;-70
